createdAt,value
2023-02-05T00:01:47.820Z,0.03
2023-02-05T00:04:14.392Z,0.10
2023-02-05T00:06:40.927Z,0.12
2023-02-05T00:09:07.290Z,0.06
2023-02-05T00:11:33.710Z,0.03
2023-02-05T00:14:00.136Z,-0.04
2023-02-05T00:16:26.596Z,-0.06
2023-02-05T00:18:53.850Z,-0.07
2023-02-05T00:21:22.321Z,-0.12
2023-02-05T00:23:49.515Z,-0.12
2023-02-05T00:26:16.726Z,-0.10
2023-02-05T00:28:43.275Z,-0.10
2023-02-05T00:31:13.948Z,-0.05
2023-02-05T00:33:40.420Z,-0.05
2023-02-05T00:36:07.556Z,-0.04
2023-02-05T00:38:34.060Z,-0.05
2023-02-05T00:41:00.487Z,0.04
2023-02-05T00:43:27.603Z,0.02
2023-02-05T00:45:56.122Z,0.03
2023-02-05T00:48:22.877Z,0.03
2023-02-05T00:50:50.740Z,0.04
2023-02-05T00:53:19.907Z,0.08
2023-02-05T00:55:46.414Z,0.07
2023-02-05T00:58:13.116Z,0.08
2023-02-05T01:00:39.689Z,0.13
2023-02-05T01:03:06.103Z,0.17
2023-02-05T01:05:35.266Z,0.26
2023-02-05T01:08:02.222Z,0.22
2023-02-05T01:10:28.704Z,0.32
2023-02-05T01:12:55.299Z,0.26
2023-02-05T01:15:21.948Z,0.18
2023-02-05T01:17:48.973Z,0.21
2023-02-05T01:20:15.821Z,0.19
2023-02-05T01:22:42.562Z,0.13
2023-02-05T01:25:10.408Z,0.08
2023-02-05T01:27:37.709Z,0.09
2023-02-05T01:30:05.988Z,0.11
2023-02-05T01:32:32.478Z,0.11
2023-02-05T01:34:58.844Z,0.08
2023-02-05T01:37:25.631Z,0.09
2023-02-05T01:39:52.027Z,0.09
2023-02-05T01:42:21.683Z,0.09
2023-02-05T01:45:20.155Z,0.14
2023-02-05T01:47:46.552Z,0.18
2023-02-05T01:50:13.651Z,0.21
2023-02-05T01:52:40.173Z,0.24
2023-02-05T01:55:08.450Z,0.26
2023-02-05T01:57:37.102Z,0.28
2023-02-05T02:00:05.675Z,0.29
2023-02-05T02:02:33.994Z,0.30
2023-02-05T02:05:06.170Z,0.32
2023-02-05T02:07:32.735Z,0.30
2023-02-05T02:09:59.668Z,0.38
2023-02-05T02:12:30.501Z,0.44
2023-02-05T02:15:01.415Z,0.43
2023-02-05T02:17:28.152Z,0.43
2023-02-05T02:20:05.581Z,0.43
2023-02-05T02:23:00.593Z,0.44
2023-02-05T02:25:49.015Z,0.43
2023-02-05T02:28:44.936Z,0.41
2023-02-05T02:31:16.730Z,0.49
2023-02-05T02:34:10.274Z,0.46
2023-02-05T02:36:48.827Z,0.37
2023-02-05T02:39:23.301Z,0.37
2023-02-05T02:41:56.872Z,0.30
2023-02-05T02:44:37.518Z,0.12
2023-02-05T02:47:12.143Z,0.10
2023-02-05T02:49:47.293Z,0.10
2023-02-05T02:52:17.158Z,0.17
2023-02-05T02:54:47.503Z,0.18
2023-02-05T02:57:16.564Z,0.21
2023-02-05T02:59:46.158Z,0.24
2023-02-05T03:02:13.945Z,0.15
2023-02-05T03:04:44.541Z,0.04
2023-02-05T03:07:19.206Z,0.02
2023-02-05T03:10:06.697Z,0.06
2023-02-05T03:12:33.444Z,0.07
2023-02-05T03:14:59.986Z,0.04
2023-02-05T03:17:27.633Z,0.06
2023-02-05T03:20:03.149Z,0.05
2023-02-05T03:22:29.573Z,0.09
2023-02-05T03:24:56.420Z,0.05
2023-02-05T03:27:23.443Z,0.02
2023-02-05T03:29:50.449Z,-0.08
2023-02-05T03:32:53.075Z,-0.05
2023-02-05T03:35:42.693Z,-0.01
2023-02-05T03:38:33.100Z,0.00
2023-02-05T03:41:06.384Z,0.10
2023-02-05T03:44:20.651Z,0.14
2023-02-05T03:47:25.468Z,0.15
2023-02-05T03:50:20.349Z,0.12
2023-02-05T03:52:54.944Z,0.11
2023-02-05T03:55:31.829Z,0.14
2023-02-05T03:58:10.252Z,0.08
2023-02-05T04:00:37.607Z,0.07
2023-02-05T04:03:04.432Z,0.12
2023-02-05T04:05:30.872Z,0.14
2023-02-05T04:07:57.993Z,0.14
2023-02-05T04:10:24.438Z,0.09
2023-02-05T04:12:51.132Z,0.00
2023-02-05T04:15:17.511Z,-0.02
2023-02-05T04:17:43.881Z,-0.12
2023-02-05T04:20:11.018Z,-0.18
2023-02-05T04:22:37.401Z,-0.16
2023-02-05T04:25:03.988Z,-0.16
2023-02-05T04:27:30.471Z,-0.17
2023-02-05T04:29:56.913Z,-0.21
2023-02-05T04:32:23.319Z,-0.21
2023-02-05T04:34:50.133Z,-0.25
2023-02-05T04:37:16.488Z,-0.34
2023-02-05T04:39:42.954Z,-0.39
2023-02-05T04:42:09.456Z,-0.42
2023-02-05T04:44:35.796Z,-0.51
2023-02-05T04:47:02.186Z,-0.54
2023-02-05T04:49:28.556Z,-0.52
2023-02-05T04:51:54.910Z,-0.56
2023-02-05T04:54:21.292Z,-0.57
2023-02-05T04:56:47.655Z,-0.54
2023-02-05T04:59:14.034Z,-0.56
2023-02-05T05:01:40.519Z,-0.58
2023-02-05T05:04:06.993Z,-0.61
2023-02-05T05:06:34.269Z,-0.67
2023-02-05T05:09:00.684Z,-0.76
2023-02-05T05:11:27.129Z,-0.81
2023-02-05T05:13:53.492Z,-0.85
2023-02-05T05:16:20.365Z,-0.87
2023-02-05T05:18:47.068Z,-0.89
2023-02-05T05:21:13.689Z,-0.85
2023-02-05T05:23:40.040Z,-0.81
2023-02-05T05:26:09.091Z,-0.75
2023-02-05T05:28:36.375Z,-0.73
2023-02-05T05:31:11.559Z,-0.80
2023-02-05T05:33:38.327Z,-0.81
2023-02-05T05:36:06.645Z,-0.85
2023-02-05T05:38:33.167Z,-0.90
2023-02-05T05:40:59.905Z,-0.90
2023-02-05T05:43:26.271Z,-0.90
2023-02-05T05:45:52.931Z,-0.90
2023-02-05T05:48:19.430Z,-0.93
2023-02-05T05:50:46.143Z,-0.89
2023-02-05T05:53:12.814Z,-0.88
2023-02-05T05:55:39.207Z,-0.87
2023-02-05T05:58:07.020Z,-0.78
2023-02-05T06:00:33.725Z,-0.76
2023-02-05T06:03:00.228Z,-0.78
2023-02-05T06:05:26.885Z,-0.74
2023-02-05T06:07:53.552Z,-0.73
2023-02-05T06:10:19.998Z,-0.71
2023-02-05T06:12:46.690Z,-0.70
2023-02-05T06:15:13.121Z,-0.72
2023-02-05T06:17:39.626Z,-0.67
2023-02-05T06:20:06.476Z,-0.65
2023-02-05T06:22:32.951Z,-0.60
2023-02-05T06:24:59.608Z,-0.58
2023-02-05T06:27:26.255Z,-0.56
2023-02-05T06:29:52.643Z,-0.51
2023-02-05T06:32:19.292Z,-0.51
2023-02-05T06:34:45.964Z,-0.43
2023-02-05T06:37:12.360Z,-0.44
2023-02-05T06:39:38.809Z,-0.40
2023-02-05T06:42:07.145Z,-0.41
2023-02-05T06:44:33.668Z,-0.33
2023-02-05T06:47:00.764Z,-0.28
2023-02-05T06:49:28.019Z,-0.25
2023-02-05T06:51:54.611Z,-0.31
2023-02-05T06:54:21.362Z,-0.21
2023-02-05T06:56:47.741Z,-0.14
2023-02-05T06:59:14.121Z,-0.14
2023-02-05T07:01:40.639Z,-0.12
2023-02-05T07:04:07.064Z,-0.10
2023-02-05T07:06:33.478Z,-0.05
2023-02-05T07:08:59.929Z,-0.01
2023-02-05T07:11:26.824Z,0.03
2023-02-05T07:13:53.493Z,0.07
2023-02-05T07:16:20.308Z,0.10
2023-02-05T07:18:46.865Z,0.06
2023-02-05T07:21:16.273Z,0.05
2023-02-05T07:23:43.230Z,0.06
2023-02-05T07:26:12.061Z,0.02
2023-02-05T07:28:38.636Z,0.03
2023-02-05T07:31:06.354Z,0.06
2023-02-05T07:33:33.184Z,0.01
2023-02-05T07:36:03.927Z,-0.04
2023-02-05T07:38:30.641Z,0.04
2023-02-05T07:40:57.195Z,0.04
2023-02-05T07:43:24.160Z,-0.05
2023-02-05T07:46:02.204Z,-0.02
2023-02-05T07:48:28.615Z,0.02
2023-02-05T07:50:55.154Z,0.09
2023-02-05T07:53:21.697Z,0.13
2023-02-05T07:55:48.161Z,0.15
2023-02-05T07:58:15.008Z,0.24
2023-02-05T08:00:41.686Z,0.22
2023-02-05T08:03:08.199Z,0.24
2023-02-05T08:05:36.307Z,0.25
2023-02-05T08:08:03.311Z,0.40
2023-02-05T08:10:29.727Z,0.44
2023-02-05T08:12:56.124Z,0.46
2023-02-05T08:15:23.194Z,0.42
2023-02-05T08:17:50.628Z,0.46
2023-02-05T08:20:17.557Z,0.59
2023-02-05T08:22:44.089Z,0.58
2023-02-05T08:25:14.046Z,0.68
2023-02-05T08:27:42.164Z,0.61
2023-02-05T08:30:12.097Z,0.55
2023-02-05T08:32:38.639Z,0.54
2023-02-05T08:35:05.595Z,0.40
2023-02-05T08:37:32.327Z,0.55
2023-02-05T08:39:58.745Z,0.61
2023-02-05T08:42:25.215Z,0.72
2023-02-05T08:44:51.909Z,0.73
2023-02-05T08:47:21.694Z,0.77
2023-02-05T08:49:48.164Z,0.80
2023-02-05T08:52:14.634Z,0.86
2023-02-05T08:54:41.147Z,1.02
2023-02-05T08:57:08.338Z,1.06
2023-02-05T08:59:35.113Z,1.08
2023-02-05T09:02:02.102Z,1.22
2023-02-05T09:04:28.735Z,1.33
2023-02-05T09:06:55.272Z,1.29
2023-02-05T09:09:21.680Z,1.44
2023-02-05T09:11:48.631Z,1.64
2023-02-05T09:14:15.412Z,1.71
2023-02-05T09:16:42.051Z,1.67
2023-02-05T09:19:09.825Z,1.78
2023-02-05T09:21:36.603Z,1.85
2023-02-05T09:24:03.351Z,1.90
2023-02-05T09:26:29.835Z,1.95
2023-02-05T09:28:57.743Z,2.00
2023-02-05T09:31:24.855Z,1.96
2023-02-05T09:33:52.940Z,1.97
2023-02-05T09:36:22.587Z,2.04
2023-02-05T09:38:50.466Z,2.04
2023-02-05T09:41:26.479Z,2.00
2023-02-05T09:44:11.638Z,2.03
2023-02-05T09:46:50.390Z,2.02
2023-02-05T09:49:30.015Z,2.01
2023-02-05T09:52:01.447Z,2.03
2023-02-05T09:54:40.158Z,1.97
2023-02-05T09:57:15.336Z,2.05
2023-02-05T09:59:44.642Z,2.07
2023-02-05T10:02:54.723Z,2.00
2023-02-05T10:05:26.996Z,1.99
2023-02-05T10:08:18.072Z,2.01
2023-02-05T10:10:45.903Z,2.00
2023-02-05T10:13:21.765Z,1.90
2023-02-05T10:16:19.885Z,1.79
2023-02-05T10:19:01.681Z,1.73
2023-02-05T10:22:07.403Z,1.92
2023-02-05T10:24:45.887Z,1.96
2023-02-05T10:27:24.432Z,1.95
2023-02-05T10:30:12.477Z,2.00
2023-02-05T10:32:51.984Z,2.02
2023-02-05T10:35:47.545Z,2.02
2023-02-05T10:38:23.018Z,2.01
2023-02-05T10:40:52.966Z,2.00
2023-02-05T10:43:25.028Z,2.00
2023-02-05T10:45:52.602Z,2.03
2023-02-05T10:48:46.548Z,2.06
2023-02-05T10:51:17.575Z,1.91
2023-02-05T10:53:44.245Z,1.85
2023-02-05T10:56:17.272Z,1.81
2023-02-05T10:58:51.074Z,1.93
2023-02-05T11:01:22.777Z,2.22
2023-02-05T11:04:17.322Z,2.14
2023-02-05T11:06:53.104Z,2.08
2023-02-05T11:09:25.693Z,1.99
2023-02-05T11:12:03.728Z,2.03
2023-02-05T11:14:32.864Z,2.08
2023-02-05T11:17:04.607Z,2.12
2023-02-05T11:19:31.466Z,2.22
2023-02-05T11:22:03.835Z,2.30
2023-02-05T11:24:34.855Z,2.34
2023-02-05T11:27:25.016Z,2.33
2023-02-05T11:29:51.521Z,2.24
2023-02-05T11:32:30.078Z,2.24
2023-02-05T11:35:18.102Z,2.27
2023-02-05T11:37:45.676Z,2.15
2023-02-05T11:40:31.867Z,2.25
2023-02-05T11:43:06.544Z,2.35
2023-02-05T11:45:36.005Z,2.37
2023-02-05T11:48:06.643Z,2.49
2023-02-05T11:50:33.873Z,2.52
2023-02-05T11:53:09.623Z,2.54
2023-02-05T11:55:36.622Z,2.46
2023-02-05T11:58:06.061Z,2.46
2023-02-05T12:00:33.599Z,2.40
2023-02-05T12:03:14.107Z,2.47
2023-02-05T12:05:47.807Z,2.44
2023-02-05T12:08:45.240Z,2.51
2023-02-05T12:11:30.628Z,2.53
2023-02-05T12:14:16.452Z,2.52
2023-02-05T12:17:17.614Z,2.59
2023-02-05T12:19:56.392Z,2.53
2023-02-05T12:22:51.412Z,2.63
2023-02-05T12:26:15.346Z,2.65
2023-02-05T12:28:52.302Z,2.66
2023-02-05T12:31:30.404Z,2.65
2023-02-05T12:34:13.186Z,2.68
2023-02-05T12:37:00.870Z,2.68
2023-02-05T12:39:38.410Z,2.77
2023-02-05T12:42:23.745Z,2.96
2023-02-05T12:45:05.058Z,2.98
2023-02-05T12:47:50.749Z,2.91
2023-02-05T12:50:26.489Z,2.86
2023-02-05T12:52:58.712Z,2.83
2023-02-05T12:55:59.590Z,2.83
2023-02-05T12:58:36.110Z,2.91
2023-02-05T13:01:08.984Z,2.95
2023-02-05T13:03:42.841Z,2.95
2023-02-05T13:06:33.476Z,2.93
2023-02-05T13:09:20.086Z,2.92
2023-02-05T13:11:56.846Z,2.97
2023-02-05T13:14:30.415Z,3.01
2023-02-05T13:17:27.884Z,3.04
2023-02-05T13:20:22.079Z,3.06
2023-02-05T13:22:58.131Z,3.03
2023-02-05T13:25:37.773Z,2.99
2023-02-05T13:28:31.104Z,2.97
2023-02-05T13:30:59.224Z,2.94
2023-02-05T13:33:28.157Z,2.97
2023-02-05T13:36:03.862Z,2.94
2023-02-05T13:38:47.168Z,2.84
2023-02-05T13:41:26.704Z,2.80
2023-02-05T13:44:22.345Z,2.74
2023-02-05T13:47:05.755Z,2.65
2023-02-05T13:50:07.672Z,2.53
2023-02-05T13:52:57.568Z,2.50
2023-02-05T13:55:39.997Z,2.44
2023-02-05T13:58:28.773Z,2.40
2023-02-05T14:01:05.868Z,2.39
2023-02-05T14:03:46.299Z,2.38
2023-02-05T14:06:17.045Z,2.36
2023-02-05T14:08:45.255Z,2.31
2023-02-05T14:11:12.073Z,2.29
2023-02-05T14:13:38.802Z,2.23
2023-02-05T14:16:32.900Z,2.11
2023-02-05T14:18:59.248Z,2.04
2023-02-05T14:21:32.584Z,2.05
2023-02-05T14:24:19.106Z,2.06
2023-02-05T14:26:51.566Z,2.15
2023-02-05T14:29:39.795Z,2.19
2023-02-05T14:32:08.963Z,2.24
2023-02-05T14:34:46.097Z,2.27
2023-02-05T14:37:43.428Z,2.30
2023-02-05T14:40:27.733Z,2.27
2023-02-05T14:43:16.136Z,2.18
2023-02-05T14:45:46.031Z,2.23
2023-02-05T14:48:22.599Z,2.14
2023-02-05T14:51:01.276Z,2.13
2023-02-05T14:53:29.328Z,2.11
2023-02-05T14:55:56.220Z,2.17
2023-02-05T14:58:38.658Z,2.13
2023-02-05T15:01:32.950Z,2.10
2023-02-05T15:04:04.793Z,2.10
2023-02-05T15:06:40.022Z,2.11
2023-02-05T15:09:39.328Z,2.13
2023-02-05T15:12:09.238Z,2.11
2023-02-05T15:14:39.026Z,2.06
2023-02-05T15:17:05.417Z,2.06
2023-02-05T15:19:43.262Z,2.07
2023-02-05T15:22:26.868Z,2.06
2023-02-05T15:24:54.632Z,2.12
2023-02-05T15:27:26.318Z,2.14
2023-02-05T15:29:56.413Z,2.14
2023-02-05T15:32:47.569Z,2.19
2023-02-05T15:35:21.888Z,2.15
2023-02-05T15:37:55.299Z,2.17
2023-02-05T15:40:31.949Z,2.17
2023-02-05T15:43:01.215Z,2.20
2023-02-05T15:45:33.016Z,2.20
2023-02-05T15:48:01.141Z,2.19
2023-02-05T15:50:28.982Z,2.19
2023-02-05T15:52:56.340Z,2.19
2023-02-05T15:55:24.894Z,2.16
2023-02-05T15:57:51.516Z,2.14
2023-02-05T16:00:29.346Z,2.17
2023-02-05T16:03:00.053Z,2.12
2023-02-05T16:05:29.595Z,2.13
2023-02-05T16:07:56.477Z,2.12
2023-02-05T16:10:31.619Z,2.11
2023-02-05T16:13:02.332Z,2.10
2023-02-05T16:15:41.288Z,2.12
2023-02-05T16:18:32.386Z,2.14
2023-02-05T16:21:01.784Z,2.12
2023-02-05T16:23:34.082Z,2.13
2023-02-05T16:26:20.356Z,2.10
2023-02-05T16:28:57.604Z,2.00
2023-02-05T16:31:26.983Z,1.97
2023-02-05T16:34:01.625Z,1.99
2023-02-05T16:36:32.474Z,1.97
2023-02-05T16:39:00.863Z,2.01
2023-02-05T16:41:30.784Z,2.04
2023-02-05T16:44:01.441Z,2.06
2023-02-05T16:46:35.829Z,2.05
2023-02-05T16:49:28.970Z,2.07
2023-02-05T16:51:55.947Z,2.08
2023-02-05T16:54:33.046Z,2.10
2023-02-05T16:57:04.159Z,2.08
2023-02-05T16:59:35.405Z,2.02
2023-02-05T17:02:02.918Z,2.00
2023-02-05T17:04:34.609Z,1.98
2023-02-05T17:07:02.660Z,1.95
2023-02-05T17:09:39.756Z,1.92
2023-02-05T17:12:36.663Z,1.90
2023-02-05T17:15:15.321Z,1.89
2023-02-05T17:17:50.343Z,1.88
2023-02-05T17:20:20.375Z,1.84
2023-02-05T17:23:01.915Z,1.88
2023-02-05T17:25:34.212Z,1.83
2023-02-05T17:28:03.138Z,1.77
2023-02-05T17:30:29.915Z,1.75
2023-02-05T17:32:56.341Z,1.77
2023-02-05T17:35:23.076Z,1.72
2023-02-05T17:37:49.484Z,1.74
2023-02-05T17:40:16.056Z,1.68
2023-02-05T17:42:44.228Z,1.70
2023-02-05T17:45:26.207Z,1.74
2023-02-05T17:47:53.337Z,1.69
2023-02-05T17:50:21.809Z,1.74
2023-02-05T17:52:48.203Z,1.72
2023-02-05T17:55:18.146Z,1.75
2023-02-05T17:57:45.458Z,1.66
2023-02-05T18:00:15.926Z,1.62
2023-02-05T18:02:44.040Z,1.66
2023-02-05T18:05:10.511Z,1.64
2023-02-05T18:07:41.394Z,1.64
2023-02-05T18:10:10.303Z,1.60
2023-02-05T18:12:36.871Z,1.62
2023-02-05T18:15:03.566Z,1.59
2023-02-05T18:17:29.941Z,1.62
2023-02-05T18:19:56.472Z,1.56
2023-02-05T18:22:22.913Z,1.54
2023-02-05T18:24:49.732Z,1.50
2023-02-05T18:27:16.112Z,1.48
2023-02-05T18:29:43.909Z,1.47
2023-02-05T18:32:10.389Z,1.45
2023-02-05T18:34:36.879Z,1.38
2023-02-05T18:37:03.447Z,1.36
2023-02-05T18:39:30.770Z,1.33
2023-02-05T18:41:58.240Z,1.34
2023-02-05T18:44:27.045Z,1.43
2023-02-05T18:46:53.471Z,1.43
2023-02-05T18:49:20.114Z,1.47
2023-02-05T18:51:46.557Z,1.47
2023-02-05T18:54:13.308Z,1.48
2023-02-05T18:56:43.080Z,1.50
2023-02-05T18:59:14.605Z,1.46
2023-02-05T19:01:44.997Z,1.46
2023-02-05T19:04:14.133Z,1.46
2023-02-05T19:06:46.273Z,1.51
2023-02-05T19:09:12.650Z,1.48
2023-02-05T19:11:40.127Z,1.47
2023-02-05T19:14:08.316Z,1.46
2023-02-05T19:16:36.183Z,1.43
2023-02-05T19:19:03.925Z,1.46
2023-02-05T19:21:31.150Z,1.52
2023-02-05T19:24:01.020Z,1.59
2023-02-05T19:26:29.395Z,1.63
2023-02-05T19:28:58.214Z,1.69
2023-02-05T19:31:26.584Z,1.65
2023-02-05T19:33:53.375Z,1.69
2023-02-05T19:36:19.805Z,1.73
2023-02-05T19:38:47.162Z,1.79
2023-02-05T19:41:17.173Z,1.73
2023-02-05T19:43:49.095Z,1.72
2023-02-05T19:46:17.160Z,1.72
2023-02-05T19:48:43.813Z,1.74
2023-02-05T19:51:12.429Z,1.72
2023-02-05T19:53:40.906Z,1.76
2023-02-05T19:56:10.350Z,1.76
2023-02-05T19:58:38.860Z,1.76
2023-02-05T20:01:19.233Z,1.72
2023-02-05T20:03:45.983Z,1.68
2023-02-05T20:06:15.677Z,1.69
2023-02-05T20:08:44.527Z,1.70
2023-02-05T20:11:11.664Z,1.65
2023-02-05T20:13:39.370Z,1.67
2023-02-05T20:16:08.204Z,1.69
2023-02-05T20:18:34.691Z,1.69
2023-02-05T20:21:23.382Z,1.67
2023-02-05T20:23:50.925Z,1.58
2023-02-05T20:26:18.500Z,1.61
2023-02-05T20:28:46.822Z,1.63
2023-02-05T20:31:15.740Z,1.64
2023-02-05T20:33:42.803Z,1.63
2023-02-05T20:36:12.263Z,1.61
2023-02-05T20:38:39.479Z,1.58
2023-02-05T20:41:15.940Z,1.61
2023-02-05T20:43:42.480Z,1.59
2023-02-05T20:46:10.233Z,1.58
2023-02-05T20:48:38.657Z,1.52
2023-02-05T20:51:15.684Z,1.51
2023-02-05T20:53:43.647Z,1.55
2023-02-05T20:56:15.620Z,1.54
2023-02-05T20:58:42.819Z,1.56
2023-02-05T21:01:18.787Z,1.51
2023-02-05T21:03:48.013Z,1.67
2023-02-05T21:06:15.534Z,1.56
2023-02-05T21:08:45.153Z,1.50
2023-02-05T21:11:12.873Z,1.45
2023-02-05T21:13:40.224Z,1.47
2023-02-05T21:16:07.548Z,1.51
2023-02-05T21:18:35.004Z,1.51
2023-02-05T21:21:09.274Z,1.56
2023-02-05T21:23:36.181Z,1.52
2023-02-05T21:26:03.869Z,1.55
2023-02-05T21:28:30.728Z,1.57
2023-02-05T21:31:02.896Z,1.52
2023-02-05T21:33:29.505Z,1.54
2023-02-05T21:35:56.285Z,1.54
2023-02-05T21:38:23.194Z,1.49
2023-02-05T21:40:50.821Z,1.42
2023-02-05T21:43:17.416Z,1.43
2023-02-05T21:45:43.963Z,1.61
2023-02-05T21:48:10.359Z,1.62
2023-02-05T21:50:38.755Z,1.61
2023-02-05T21:53:05.551Z,1.58
2023-02-05T21:55:33.519Z,1.55
2023-02-05T21:58:00.039Z,1.54
2023-02-05T22:00:26.663Z,1.54
2023-02-05T22:02:53.037Z,1.53
2023-02-05T22:05:19.394Z,1.54
2023-02-05T22:07:45.702Z,1.55
2023-02-05T22:10:12.634Z,1.56
2023-02-05T22:12:38.994Z,1.57
2023-02-05T22:15:05.693Z,1.58
2023-02-05T22:17:32.182Z,1.59
2023-02-05T22:19:58.547Z,1.60
2023-02-05T22:22:24.933Z,1.63
2023-02-05T22:24:51.287Z,1.57
2023-02-05T22:27:17.790Z,1.56
2023-02-05T22:29:44.204Z,1.58
2023-02-05T22:32:10.578Z,1.53
2023-02-05T22:34:37.166Z,1.46
2023-02-05T22:37:03.625Z,1.48
2023-02-05T22:39:32.533Z,1.45
2023-02-05T22:41:58.925Z,1.46
2023-02-05T22:44:25.327Z,1.42
2023-02-05T22:46:51.768Z,1.42
2023-02-05T22:49:18.538Z,1.43
2023-02-05T22:51:47.633Z,1.43
2023-02-05T22:54:14.554Z,1.45
2023-02-05T22:56:40.915Z,1.45
2023-02-05T22:59:09.715Z,1.45
2023-02-05T23:01:38.064Z,1.46
2023-02-05T23:04:07.463Z,1.43
2023-02-05T23:06:36.972Z,1.43
2023-02-05T23:09:07.467Z,1.41
2023-02-05T23:11:35.086Z,1.36
2023-02-05T23:14:03.863Z,1.38
2023-02-05T23:16:38.132Z,1.44
2023-02-05T23:19:10.710Z,1.46
2023-02-05T23:21:39.173Z,1.50
2023-02-05T23:24:06.768Z,1.47
2023-02-05T23:26:36.667Z,1.45
2023-02-05T23:29:03.119Z,1.47
2023-02-05T23:31:30.094Z,1.44
2023-02-05T23:33:56.606Z,1.43
2023-02-05T23:36:24.422Z,1.46
2023-02-05T23:38:50.918Z,1.45
2023-02-05T23:41:17.540Z,1.46
2023-02-05T23:43:43.924Z,1.44
2023-02-05T23:46:10.863Z,1.48
2023-02-05T23:48:37.190Z,1.45
2023-02-05T23:51:03.718Z,1.46
2023-02-05T23:53:30.057Z,1.47
2023-02-05T23:55:56.566Z,1.45
2023-02-05T23:58:23.034Z,1.46
